Time;durP1;ratioP1;P1;durP2;ratioP2;P2;SDS_P1;SDS_P2;PMS_P1;PMS_P2;Temp;Humidity;BMP_temperature;BMP_pressure;BME280_temperature;BME280_humidity;BME280_pressure;Samples;Min_cycle;Max_cycle;Signal;HPM_P1;HPM_P2
2022/07/26 00:01:38;;;;;;;;;;;19.00;99.90;;;;;;5139123;27;19930;-79
2022/07/26 00:04:04;;;;;;;;;;;19.00;99.90;;;;;;5121991;27;19923;-79
2022/07/26 00:06:29;;;;;;;;;;;18.90;99.90;;;;;;5104773;27;20367;-79
2022/07/26 00:08:55;;;;;;;;;;;18.90;99.90;;;;;;5121771;27;19924;-80
2022/07/26 00:11:21;;;;;;;;;;;18.90;99.90;;;;;;5104560;27;19923;-79
2022/07/26 00:13:47;;;;;;;;;;;18.80;99.90;;;;;;5138863;27;19930;-79
2022/07/26 00:16:12;;;;;;;;;;;18.80;99.90;;;;;;5138543;27;19923;-80
2022/07/26 00:18:38;;;;;;;;;;;18.80;99.90;;;;;;5138420;27;19923;-79
2022/07/26 00:21:04;;;;;;;;;;;18.80;99.90;;;;;;5137672;27;19923;-79
2022/07/26 00:23:29;;;;;;;;;;;18.70;99.90;;;;;;5138396;27;19991;-79
2022/07/26 00:25:55;;;;;;;;;;;18.70;99.90;;;;;;5138653;27;19923;-80
2022/07/26 00:28:21;;;;;;;;;;;18.60;99.90;;;;;;5138520;27;19923;-80
2022/07/26 00:30:46;;;;;;;;;;;18.60;99.90;;;;;;5138561;27;19930;-79
2022/07/26 00:33:12;;;;;;;;;;;18.60;99.90;;;;;;5120608;27;19930;-90
2022/07/26 00:35:38;;;;;;;;;;;18.50;99.90;;;;;;5121314;27;19931;-79
2022/07/26 00:38:03;;;;;;;;;;;18.50;99.90;;;;;;5121275;27;19931;-79
2022/07/26 00:40:29;;;;;;;;;;;18.50;99.90;;;;;;5138221;27;19931;-79
2022/07/26 00:42:54;;;;;;;;;;;18.50;99.90;;;;;;5121298;27;19923;-80
2022/07/26 00:45:20;;;;;;;;;;;18.50;99.90;;;;;;5120992;27;19973;-80
2022/07/26 00:47:46;;;;;;;;;;;18.50;99.90;;;;;;5121161;27;19923;-79
2022/07/26 00:50:13;;;;;;;;;;;18.50;99.90;;;;;;5121121;27;19980;-79
2022/07/26 00:52:42;;;;;;;;;;;18.50;99.90;;;;;;5120652;27;20291;-79
2022/07/26 00:55:08;;;;;;;;;;;18.50;99.90;;;;;;5120937;27;20376;-79
2022/07/26 00:57:34;;;;;;;;;;;18.50;99.90;;;;;;5103772;27;20011;-79
2022/07/26 01:00:11;;;;;;;;;;;18.50;99.90;;;;;;5120916;27;20021;-80
2022/07/26 01:02:36;;;;;;;;;;;18.50;99.90;;;;;;5137887;27;19923;-79
2022/07/26 01:05:02;;;;;;;;;;;18.50;99.90;;;;;;5120672;27;20328;-79
2022/07/26 01:07:28;;;;;;;;;;;18.50;99.90;;;;;;5120473;27;19923;-80
2022/07/26 01:09:54;;;;;;;;;;;18.50;99.90;;;;;;5120692;27;19930;-80
2022/07/26 01:12:19;;;;;;;;;;;18.50;99.90;;;;;;5137355;27;20290;-81
2022/07/26 01:14:45;;;;;;;;;;;18.50;99.90;;;;;;5137468;27;19927;-79
2022/07/26 01:17:12;;;;;;;;;;;18.50;99.90;;;;;;5116781;27;19931;-79
2022/07/26 01:19:37;;;;;;;;;;;18.40;99.90;;;;;;5133650;27;20332;-79
2022/07/26 01:22:03;;;;;;;;;;;18.30;99.90;;;;;;5117039;27;20010;-79
2022/07/26 01:24:28;;;;;;;;;;;18.10;99.90;;;;;;5116481;27;19981;-77
2022/07/26 01:26:55;;;;;;;;;;;17.90;99.90;;;;;;5100036;27;19959;-80
2022/07/26 01:29:22;;;;;;;;;;;17.70;99.90;;;;;;5133915;27;20005;-79
2022/07/26 01:31:47;;;;;;;;;;;17.60;99.90;;;;;;5133851;27;19930;-78
2022/07/26 01:34:13;;;;;;;;;;;17.60;99.90;;;;;;5116614;27;19923;-79
2022/07/26 01:36:38;;;;;;;;;;;17.50;99.90;;;;;;5116605;27;19934;-79
2022/07/26 01:39:04;;;;;;;;;;;17.40;99.90;;;;;;5116779;27;19924;-80
2022/07/26 01:41:29;;;;;;;;;;;17.40;99.90;;;;;;5133654;27;19942;-79
2022/07/26 01:43:55;;;;;;;;;;;17.40;99.90;;;;;;5116636;27;19924;-79
2022/07/26 01:46:21;;;;;;;;;;;17.30;99.90;;;;;;5116585;28;19973;-90
2022/07/26 01:48:46;;;;;;;;;;;17.20;99.90;;;;;;5133737;27;20256;-79
2022/07/26 01:51:12;;;;;;;;;;;17.20;99.90;;;;;;5133584;27;19923;-78
2022/07/26 01:53:37;;;;;;;;;;;17.20;99.90;;;;;;5116450;27;19930;-79
2022/07/26 01:56:03;;;;;;;;;;;17.20;99.90;;;;;;5116505;27;20363;-78
2022/07/26 01:58:29;;;;;;;;;;;17.20;99.90;;;;;;5133445;27;19935;-78
2022/07/26 02:00:54;;;;;;;;;;;17.10;99.90;;;;;;5116478;28;19931;-79
2022/07/26 02:03:20;;;;;;;;;;;17.20;99.90;;;;;;5116488;28;20369;-79
2022/07/26 02:05:45;;;;;;;;;;;17.10;99.90;;;;;;5133412;28;20022;-79
2022/07/26 02:08:11;;;;;;;;;;;17.10;99.90;;;;;;5116366;28;19972;-79
2022/07/26 02:13:21;;;;;;;;;;;17.10;99.90;;;;;;5133262;28;20008;-79
2022/07/26 02:15:47;;;;;;;;;;;17.20;99.90;;;;;;5133346;28;19931;-79
2022/07/26 02:18:13;;;;;;;;;;;17.10;99.90;;;;;;5115930;28;20286;-79
2022/07/26 02:20:38;;;;;;;;;;;17.10;99.90;;;;;;5099163;28;19924;-79
2022/07/26 02:23:04;;;;;;;;;;;17.00;99.90;;;;;;5116314;28;19931;-79
2022/07/26 02:25:29;;;;;;;;;;;17.00;99.90;;;;;;5116147;28;20328;-79
2022/07/26 02:27:55;;;;;;;;;;;17.00;99.90;;;;;;5099286;28;19923;-80
2022/07/26 02:30:21;;;;;;;;;;;17.00;99.90;;;;;;5116338;28;19953;-79
2022/07/26 02:32:47;;;;;;;;;;;16.90;99.90;;;;;;5132852;28;19973;-79
2022/07/26 02:35:12;;;;;;;;;;;17.00;99.90;;;;;;5116167;28;19984;-79
2022/07/26 02:37:39;;;;;;;;;;;16.90;99.90;;;;;;5132722;28;19968;-80
2022/07/26 02:40:05;;;;;;;;;;;16.90;99.90;;;;;;5116036;28;20290;-80
2022/07/26 02:42:31;;;;;;;;;;;16.90;99.90;;;;;;5115977;28;19989;-80
2022/07/26 02:44:56;;;;;;;;;;;16.90;99.90;;;;;;5134159;27;20372;-80
2022/07/26 02:47:22;;;;;;;;;;;16.90;99.90;;;;;;5137296;27;19923;-80
2022/07/26 02:49:47;;;;;;;;;;;16.90;99.90;;;;;;5119772;27;20402;-80
2022/07/26 02:52:13;;;;;;;;;;;16.90;99.90;;;;;;5102695;27;20371;-80
2022/07/26 02:54:39;;;;;;;;;;;16.90;99.90;;;;;;5119685;27;19927;-81
2022/07/26 02:57:05;;;;;;;;;;;16.80;99.90;;;;;;5137044;27;20063;-80
2022/07/26 02:59:30;;;;;;;;;;;16.80;99.90;;;;;;5119643;27;19930;-87
2022/07/26 03:01:56;;;;;;;;;;;16.80;99.90;;;;;;5136864;27;19931;-81
2022/07/26 03:04:21;;;;;;;;;;;16.80;99.90;;;;;;5136758;27;20426;-79
2022/07/26 03:06:47;;;;;;;;;;;16.80;99.90;;;;;;5119409;27;19930;-80
2022/07/26 03:09:12;;;;;;;;;;;16.70;99.90;;;;;;5119576;27;19975;-80
2022/07/26 03:11:38;;;;;;;;;;;16.70;99.90;;;;;;5136432;27;19968;-81
2022/07/26 03:14:04;;;;;;;;;;;16.70;99.90;;;;;;5136730;27;19923;-80
2022/07/26 03:16:29;;;;;;;;;;;16.70;99.90;;;;;;5136697;27;19927;-80
2022/07/26 03:18:55;;;;;;;;;;;16.70;99.90;;;;;;5118840;27;19923;-80
2022/07/26 03:21:21;;;;;;;;;;;16.70;99.90;;;;;;5136470;27;20298;-80
2022/07/26 03:23:46;;;;;;;;;;;16.70;99.90;;;;;;5136311;27;19931;-80
2022/07/26 03:26:12;;;;;;;;;;;16.70;99.90;;;;;;5102250;27;19927;-79
2022/07/26 03:28:40;;;;;;;;;;;16.60;99.90;;;;;;5136239;27;19928;-80
2022/07/26 03:31:06;;;;;;;;;;;16.60;99.90;;;;;;5119132;27;19924;-80
2022/07/26 03:33:32;;;;;;;;;;;16.60;99.90;;;;;;5119197;27;19977;-80
2022/07/26 03:35:57;;;;;;;;;;;16.50;99.90;;;;;;5135997;27;19931;-80
2022/07/26 03:38:23;;;;;;;;;;;16.60;99.90;;;;;;5119058;27;20223;-80
2022/07/26 03:40:48;;;;;;;;;;;16.50;99.90;;;;;;5136058;27;20367;-80
2022/07/26 03:43:14;;;;;;;;;;;16.60;99.90;;;;;;5118884;27;19924;-81
2022/07/26 03:45:40;;;;;;;;;;;16.60;99.90;;;;;;5118743;27;20063;-80
2022/07/26 03:48:06;;;;;;;;;;;16.60;99.90;;;;;;5136051;27;20275;-80
2022/07/26 03:50:32;;;;;;;;;;;16.70;99.90;;;;;;5101842;27;19923;-80
2022/07/26 03:52:57;;;;;;;;;;;16.60;99.90;;;;;;5118251;27;19947;-81
2022/07/26 03:58:07;;;;;;;;;;;16.70;99.90;;;;;;5121446;27;19931;-81
2022/07/26 04:00:33;;;;;;;;;;;16.70;99.90;;;;;;5135750;27;19923;-80
2022/07/26 04:02:58;;;;;;;;;;;16.70;99.90;;;;;;5118165;27;20464;-81
2022/07/26 04:05:24;;;;;;;;;;;16.70;99.90;;;;;;5135693;27;19924;-80
2022/07/26 04:07:50;;;;;;;;;;;16.70;99.90;;;;;;5118302;27;19923;-80
2022/07/26 04:10:17;;;;;;;;;;;16.60;99.90;;;;;;5101361;27;19930;-79
2022/07/26 04:12:42;;;;;;;;;;;16.60;99.90;;;;;;5117702;27;19924;-82
2022/07/26 04:15:09;;;;;;;;;;;16.50;99.90;;;;;;5101286;27;19931;-81
2022/07/26 04:17:38;;;;;;;;;;;16.60;99.90;;;;;;5118121;27;19935;-81
2022/07/26 04:20:05;;;;;;;;;;;16.50;99.90;;;;;;5135222;27;19928;-81
2022/07/26 04:22:31;;;;;;;;;;;16.60;99.90;;;;;;5118459;27;19929;-80
2022/07/26 04:24:56;;;;;;;;;;;16.50;99.90;;;;;;5101046;27;20342;-81
2022/07/26 04:27:22;;;;;;;;;;;16.60;99.90;;;;;;5135194;27;19972;-80
2022/07/26 04:29:47;;;;;;;;;;;16.60;99.90;;;;;;5100894;27;19924;-81
2022/07/26 04:32:13;;;;;;;;;;;16.50;99.90;;;;;;5134907;27;20027;-80
2022/07/26 04:34:38;;;;;;;;;;;16.50;99.90;;;;;;5100970;27;19930;-80
2022/07/26 04:37:04;;;;;;;;;;;16.60;99.90;;;;;;5100774;27;19931;-81
2022/07/26 04:39:29;;;;;;;;;;;16.60;99.90;;;;;;5135011;27;19923;-80
2022/07/26 04:41:55;;;;;;;;;;;16.50;99.90;;;;;;5117564;27;19924;-81
2022/07/26 04:44:20;;;;;;;;;;;16.60;99.90;;;;;;5117750;27;19931;-80
2022/07/26 04:46:46;;;;;;;;;;;16.60;99.90;;;;;;5134828;27;20354;-81
2022/07/26 04:49:12;;;;;;;;;;;16.60;99.90;;;;;;5117596;27;19927;-80
2022/07/26 04:51:38;;;;;;;;;;;16.60;99.90;;;;;;5100605;27;19923;-81
2022/07/26 04:54:03;;;;;;;;;;;16.60;99.90;;;;;;5117371;27;20245;-80
2022/07/26 04:56:29;;;;;;;;;;;16.60;99.90;;;;;;5117470;27;19976;-80
2022/07/26 04:58:55;;;;;;;;;;;16.50;99.90;;;;;;5117350;27;19924;-81
2022/07/26 05:01:20;;;;;;;;;;;16.40;99.90;;;;;;5117454;27;20363;-80
2022/07/26 05:03:46;;;;;;;;;;;16.40;99.90;;;;;;5117351;27;19924;-85
2022/07/26 05:06:11;;;;;;;;;;;16.40;99.90;;;;;;5134491;27;19924;-80
2022/07/26 05:08:37;;;;;;;;;;;16.50;99.90;;;;;;5116848;27;20370;-80
2022/07/26 05:11:03;;;;;;;;;;;16.40;99.90;;;;;;5100071;27;20010;-81
2022/07/26 05:13:28;;;;;;;;;;;16.50;99.90;;;;;;5117159;27;19988;-82
2022/07/26 05:15:54;;;;;;;;;;;16.40;99.90;;;;;;5133783;27;20393;-81
2022/07/26 05:18:19;;;;;;;;;;;16.50;99.90;;;;;;5116686;27;19931;-79
2022/07/26 05:20:45;;;;;;;;;;;16.50;99.90;;;;;;5133837;27;20375;-80
2022/07/26 05:23:10;;;;;;;;;;;16.50;99.90;;;;;;5116856;27;19979;-80
2022/07/26 05:25:37;;;;;;;;;;;16.60;99.90;;;;;;5116633;27;19923;-81
2022/07/26 05:28:03;;;;;;;;;;;16.60;99.90;;;;;;5116927;27;19923;-80
2022/07/26 05:30:28;;;;;;;;;;;16.60;99.90;;;;;;5134108;27;20320;-79
2022/07/26 05:32:54;;;;;;;;;;;16.70;99.90;;;;;;5133545;27;19924;-81
2022/07/26 05:35:20;;;;;;;;;;;16.70;99.90;;;;;;5116804;27;19927;-80
2022/07/26 05:37:45;;;;;;;;;;;16.80;99.90;;;;;;5116846;27;20371;-80
2022/07/26 05:40:11;;;;;;;;;;;16.80;99.90;;;;;;5116522;27;19923;-81
2022/07/26 05:42:37;;;;;;;;;;;16.90;99.90;;;;;;5133851;27;19923;-81
2022/07/26 05:45:04;;;;;;;;;;;16.90;99.90;;;;;;5116507;27;19923;-81
2022/07/26 05:47:29;;;;;;;;;;;16.90;99.90;;;;;;5116617;27;20299;-80
2022/07/26 05:49:55;;;;;;;;;;;16.90;99.90;;;;;;5133598;27;19924;-81
2022/07/26 05:52:21;;;;;;;;;;;16.90;99.90;;;;;;5133485;27;20429;-81
2022/07/26 05:54:47;;;;;;;;;;;17.00;99.90;;;;;;5133442;27;20000;-80
2022/07/26 05:57:12;;;;;;;;;;;17.00;99.90;;;;;;5116373;28;19982;-80
2022/07/26 05:59:38;;;;;;;;;;;17.00;99.90;;;;;;5099469;27;19945;-80
2022/07/26 06:02:04;;;;;;;;;;;17.00;99.90;;;;;;5133139;27;19949;-81
2022/07/26 06:04:29;;;;;;;;;;;17.10;99.90;;;;;;5133619;28;19931;-81
2022/07/26 06:06:55;;;;;;;;;;;17.10;99.90;;;;;;5116270;28;19923;-81
2022/07/26 06:09:23;;;;;;;;;;;17.10;99.90;;;;;;5116366;28;19924;-80
2022/07/26 06:11:49;;;;;;;;;;;17.10;99.90;;;;;;5115877;28;19980;-80
2022/07/26 06:14:14;;;;;;;;;;;17.00;99.90;;;;;;5133311;28;19986;-81
2022/07/26 06:16:40;;;;;;;;;;;17.00;99.90;;;;;;5116795;27;20286;-80
2022/07/26 06:19:06;;;;;;;;;;;17.00;99.90;;;;;;5136802;27;19929;-81
2022/07/26 06:21:31;;;;;;;;;;;17.10;99.90;;;;;;5123790;27;19923;-82
2022/07/26 06:23:57;;;;;;;;;;;17.20;99.90;;;;;;5123434;27;19981;-82
2022/07/26 06:26:22;;;;;;;;;;;17.30;99.90;;;;;;5141067;27;20374;-80
2022/07/26 06:28:50;;;;;;;;;;;17.40;99.90;;;;;;5140979;27;20049;-80
2022/07/26 06:31:18;;;;;;;;;;;17.50;99.90;;;;;;5140541;27;19973;-81
2022/07/26 06:33:44;;;;;;;;;;;17.50;99.90;;;;;;5140833;27;19927;-80
2022/07/26 06:36:09;;;;;;;;;;;17.40;99.90;;;;;;5123528;27;20263;-81
2022/07/26 06:38:35;;;;;;;;;;;17.30;99.90;;;;;;5123643;27;19927;-80
2022/07/26 06:41:01;;;;;;;;;;;17.30;99.90;;;;;;5123440;27;19970;-81
2022/07/26 06:43:26;;;;;;;;;;;17.10;99.90;;;;;;5123532;27;19930;-79
2022/07/26 06:45:52;;;;;;;;;;;16.70;99.90;;;;;;5123731;27;19927;-80
2022/07/26 06:48:17;;;;;;;;;;;16.50;99.90;;;;;;5140079;27;19984;-80
2022/07/26 06:50:43;;;;;;;;;;;16.40;99.90;;;;;;5123510;27;19923;-80
2022/07/26 06:53:08;;;;;;;;;;;16.30;99.90;;;;;;5122905;27;19942;-80
2022/07/26 06:55:34;;;;;;;;;;;16.30;99.90;;;;;;5123345;27;19927;-80
2022/07/26 06:57:59;;;;;;;;;;;16.40;99.90;;;;;;5140348;27;20021;-80
2022/07/26 07:00:25;;;;;;;;;;;16.50;99.90;;;;;;5123098;27;19930;-80
2022/07/26 07:02:51;;;;;;;;;;;16.60;99.90;;;;;;5140381;27;20072;-80
2022/07/26 07:05:16;;;;;;;;;;;16.60;99.90;;;;;;5122939;27;19923;-81
2022/07/26 07:07:42;;;;;;;;;;;16.60;99.90;;;;;;5123116;27;19923;-81
2022/07/26 07:10:08;;;;;;;;;;;16.70;99.90;;;;;;5122483;27;19927;-81
2022/07/26 07:12:33;;;;;;;;;;;16.70;99.90;;;;;;5122684;27;19933;-81
2022/07/26 07:14:59;;;;;;;;;;;16.70;99.90;;;;;;5140132;27;19970;-80
2022/07/26 07:17:25;;;;;;;;;;;16.70;99.90;;;;;;5139031;27;19923;-80
2022/07/26 07:19:50;;;;;;;;;;;16.70;99.90;;;;;;5138872;27;19988;-80
2022/07/26 07:22:16;;;;;;;;;;;16.80;99.90;;;;;;5121396;27;20378;-81
2022/07/26 07:24:42;;;;;;;;;;;16.80;99.90;;;;;;5121641;27;19923;-81
2022/07/26 07:27:08;;;;;;;;;;;16.80;99.90;;;;;;5138544;27;19974;-82
2022/07/26 07:29:33;;;;;;;;;;;16.90;99.90;;;;;;5138616;27;19923;-81
2022/07/26 07:31:59;;;;;;;;;;;16.90;99.90;;;;;;5137999;27;19933;-81
2022/07/26 07:34:25;;;;;;;;;;;17.00;99.90;;;;;;5138066;27;19927;-81
2022/07/26 07:36:51;;;;;;;;;;;17.00;99.90;;;;;;5138480;27;19923;-80
2022/07/26 07:39:17;;;;;;;;;;;17.10;99.90;;;;;;5121093;27;19923;-81
2022/07/26 07:41:43;;;;;;;;;;;17.30;99.90;;;;;;5121251;27;19923;-80
2022/07/26 07:44:09;;;;;;;;;;;17.30;99.90;;;;;;5121224;27;19930;-82
2022/07/26 07:46:34;;;;;;;;;;;17.40;99.90;;;;;;5121347;27;19931;-81
2022/07/26 07:49:00;;;;;;;;;;;17.40;99.90;;;;;;5121163;27;20017;-82
2022/07/26 07:51:26;;;;;;;;;;;17.60;99.90;;;;;;5137972;27;19982;-81
2022/07/26 07:53:52;;;;;;;;;;;17.80;99.90;;;;;;5120830;27;19974;-81
2022/07/26 07:56:17;;;;;;;;;;;17.90;99.90;;;;;;5137966;27;19927;-81
2022/07/26 07:58:43;;;;;;;;;;;17.90;99.90;;;;;;5138209;27;20397;-80
2022/07/26 08:01:08;;;;;;;;;;;17.80;99.90;;;;;;5137831;27;19972;-88
2022/07/26 08:03:34;;;;;;;;;;;17.70;99.90;;;;;;5137818;27;19931;-80
2022/07/26 08:06:00;;;;;;;;;;;17.50;99.90;;;;;;5138101;27;19927;-81
2022/07/26 08:08:26;;;;;;;;;;;17.30;99.90;;;;;;5137784;27;19974;-81
2022/07/26 08:10:51;;;;;;;;;;;17.30;99.90;;;;;;5120852;27;20429;-81
2022/07/26 08:13:17;;;;;;;;;;;17.30;99.90;;;;;;5137369;27;19923;-81
2022/07/26 08:15:43;;;;;;;;;;;17.30;99.90;;;;;;5120416;27;19923;-81
2022/07/26 08:18:08;;;;;;;;;;;17.30;99.90;;;;;;5073725;27;1793519;-81
2022/07/26 08:20:34;;;;;;;;;;;17.40;99.90;;;;;;5138719;27;19926;-81
2022/07/26 08:22:59;;;;;;;;;;;17.40;99.90;;;;;;5121669;27;20021;-81
2022/07/26 08:25:25;;;;;;;;;;;17.50;99.90;;;;;;5121641;27;19965;-81
2022/07/26 08:27:51;;;;;;;;;;;17.50;99.90;;;;;;5121475;27;19923;-81
2022/07/26 08:30:16;;;;;;;;;;;17.50;99.90;;;;;;5138373;27;20270;-81
2022/07/26 08:32:42;;;;;;;;;;;17.40;99.90;;;;;;5121256;27;19923;-81
2022/07/26 08:35:07;;;;;;;;;;;17.40;99.90;;;;;;5138473;27;19923;-80
2022/07/26 08:37:33;;;;;;;;;;;17.40;99.90;;;;;;5104225;27;19949;-81
2022/07/26 08:39:59;;;;;;;;;;;17.40;99.90;;;;;;5138022;27;20311;-81
2022/07/26 08:42:24;;;;;;;;;;;17.40;99.90;;;;;;5120237;27;19976;-81
2022/07/26 08:44:50;;;;;;;;;;;17.50;99.90;;;;;;5121278;27;19930;-81
2022/07/26 08:47:17;;;;;;;;;;;17.50;99.90;;;;;;5121046;27;20021;-82
2022/07/26 08:49:43;;;;;;;;;;;17.60;99.90;;;;;;5137913;27;19923;-81
2022/07/26 08:52:09;;;;;;;;;;;17.60;99.90;;;;;;5120891;27;19975;-81
2022/07/26 08:54:35;;;;;;;;;;;17.70;99.90;;;;;;5137705;27;19927;-81
2022/07/26 08:57:01;;;;;;;;;;;17.70;99.90;;;;;;5120609;27;19984;-81
2022/07/26 08:59:26;;;;;;;;;;;17.70;99.90;;;;;;5137856;27;19998;-80
2022/07/26 09:01:56;;;;;;;;;;;17.70;99.90;;;;;;5137714;27;19930;-81
2022/07/26 09:04:32;;;;;;;;;;;17.70;99.90;;;;;;5137686;27;19930;-81
2022/07/26 09:06:58;;;;;;;;;;;17.80;99.90;;;;;;5138086;27;19922;-81
2022/07/26 09:09:24;;;;;;;;;;;18.00;99.90;;;;;;5137639;27;19923;-81
2022/07/26 09:11:50;;;;;;;;;;;18.10;99.90;;;;;;5120518;27;20059;-80
2022/07/26 09:14:15;;;;;;;;;;;18.30;99.90;;;;;;5137858;27;19967;-81
2022/07/26 09:16:54;;;;;;;;;;;18.30;99.90;;;;;;5120101;27;20354;-82
2022/07/26 09:19:22;;;;;;;;;;;18.30;99.90;;;;;;5137559;27;19931;-82
2022/07/26 09:21:48;;;;;;;;;;;18.40;99.90;;;;;;5120551;27;19966;-81
2022/07/26 09:24:30;;;;;;;;;;;18.60;99.90;;;;;;5137282;27;19970;-80
2022/07/26 09:26:56;;;;;;;;;;;18.70;99.90;;;;;;5120321;27;20358;-81
2022/07/26 09:29:22;;;;;;;;;;;18.80;99.90;;;;;;5137535;27;19924;-81
2022/07/26 09:31:47;;;;;;;;;;;18.80;99.90;;;;;;5137383;27;19946;-80
2022/07/26 09:34:22;;;;;;;;;;;18.90;99.90;;;;;;5137445;27;19934;-80
2022/07/26 09:36:51;;;;;;;;;;;18.90;99.90;;;;;;5137378;27;19929;-80
2022/07/26 09:39:17;;;;;;;;;;;19.00;99.90;;;;;;5120247;27;19966;-80
2022/07/26 09:41:43;;;;;;;;;;;18.90;99.90;;;;;;5120032;27;20377;-80
2022/07/26 09:44:19;;;;;;;;;;;19.10;99.90;;;;;;5120131;27;20003;-80
2022/07/26 09:46:51;;;;;;;;;;;19.30;99.90;;;;;;5137070;27;19930;-80
2022/07/26 09:49:19;;;;;;;;;;;19.30;99.90;;;;;;5137138;27;19943;-81
2022/07/26 09:51:46;;;;;;;;;;;19.50;99.90;;;;;;5136781;27;19923;-80
2022/07/26 09:54:16;;;;;;;;;;;19.60;99.90;;;;;;5136953;27;19924;-80
2022/07/26 09:56:46;;;;;;;;;;;19.80;99.90;;;;;;5136981;27;19923;-80
2022/07/26 09:59:13;;;;;;;;;;;19.80;99.90;;;;;;5119930;27;19923;-80
2022/07/26 10:01:39;;;;;;;;;;;19.90;99.90;;;;;;5119820;27;19930;-80
2022/07/26 10:04:05;;;;;;;;;;;19.90;99.90;;;;;;5119995;27;20271;-80
2022/07/26 10:06:30;;;;;;;;;;;19.70;99.90;;;;;;5119699;27;19927;-81
2022/07/26 10:08:57;;;;;;;;;;;19.70;99.90;;;;;;5119890;27;20038;-81
2022/07/26 10:11:24;;;;;;;;;;;19.70;99.90;;;;;;5119932;27;19923;-81
2022/07/26 10:13:50;;;;;;;;;;;19.70;99.90;;;;;;5119553;27;19927;-81
2022/07/26 10:16:29;;;;;;;;;;;19.60;99.90;;;;;;5119716;27;19930;-81
2022/07/26 10:18:56;;;;;;;;;;;19.80;99.90;;;;;;5119011;27;19930;-82
2022/07/26 10:21:26;;;;;;;;;;;19.70;99.90;;;;;;5103162;27;19970;-82
2022/07/26 10:23:52;;;;;;;;;;;19.80;99.90;;;;;;5119743;27;19931;-81
2022/07/26 10:26:30;;;;;;;;;;;20.10;99.90;;;;;;5136765;27;19923;-81
2022/07/26 10:29:15;;;;;;;;;;;20.20;99.90;;;;;;5119623;27;20018;-82
2022/07/26 10:31:48;;;;;;;;;;;20.10;99.90;;;;;;5119195;27;19923;-81
2022/07/26 10:34:30;;;;;;;;;;;20.20;99.90;;;;;;5119642;27;20259;-81
2022/07/26 10:37:00;;;;;;;;;;;20.20;99.90;;;;;;5136543;27;19970;-81
2022/07/26 10:39:26;;;;;;;;;;;20.10;99.90;;;;;;5119594;27;20029;-80
2022/07/26 10:41:59;;;;;;;;;;;20.20;99.90;;;;;;5136485;27;19923;-81
2022/07/26 10:44:26;;;;;;;;;;;20.30;99.90;;;;;;5136397;27;19930;-81
2022/07/26 10:46:57;;;;;;;;;;;20.30;99.90;;;;;;5119344;27;20254;-81
2022/07/26 10:49:29;;;;;;;;;;;20.40;99.90;;;;;;5136622;27;20401;-81
2022/07/26 10:52:05;;;;;;;;;;;20.40;99.90;;;;;;5136314;27;19974;-81
2022/07/26 10:54:30;;;;;;;;;;;20.50;99.90;;;;;;5136534;27;19923;-88
2022/07/26 10:56:56;;;;;;;;;;;20.40;99.90;;;;;;5119446;27;19930;-81
2022/07/26 10:59:31;;;;;;;;;;;20.40;99.90;;;;;;5119459;27;19923;-80
2022/07/26 11:01:57;;;;;;;;;;;20.50;99.90;;;;;;5102408;27;20291;-81
2022/07/26 11:04:24;;;;;;;;;;;20.50;99.90;;;;;;5136721;27;19973;-81
2022/07/26 11:06:50;;;;;;;;;;;20.40;99.90;;;;;;5121856;27;20278;-80
2022/07/26 11:09:18;;;;;;;;;;;20.40;99.90;;;;;;5122985;27;19930;-81
2022/07/26 11:11:44;;;;;;;;;;;20.30;99.90;;;;;;5139965;27;19972;-81
2022/07/26 11:14:11;;;;;;;;;;;20.20;99.90;;;;;;5140204;27;19927;-80
2022/07/26 11:16:37;;;;;;;;;;;20.10;99.90;;;;;;5139727;27;19923;-80
2022/07/26 11:19:19;;;;;;;;;;;20.00;99.90;;;;;;5139997;27;20385;-81
2022/07/26 11:21:45;;;;;;;;;;;19.80;99.90;;;;;;5139740;27;19923;-80
2022/07/26 11:24:11;;;;;;;;;;;19.80;99.90;;;;;;5123124;27;20390;-80
2022/07/26 11:26:41;;;;;;;;;;;19.90;99.90;;;;;;5140363;27;19930;-81
2022/07/26 11:29:07;;;;;;;;;;;20.00;99.90;;;;;;5139791;27;19930;-81
2022/07/26 11:31:34;;;;;;;;;;;20.00;99.90;;;;;;5139720;27;19923;-81
2022/07/26 11:33:59;;;;;;;;;;;20.30;99.90;;;;;;5122371;27;20225;-81
2022/07/26 11:36:35;;;;;;;;;;;20.70;99.90;;;;;;5139715;27;19923;-80
2022/07/26 11:39:02;;;;;;;;;;;20.80;99.90;;;;;;5139560;27;20011;-80
2022/07/26 11:41:28;;;;;;;;;;;21.10;99.90;;;;;;5139477;27;19923;-80
2022/07/26 11:43:55;;;;;;;;;;;21.30;99.90;;;;;;5139325;27;19924;-83
2022/07/26 11:46:21;;;;;;;;;;;21.20;99.90;;;;;;5139580;27;20026;-80
2022/07/26 11:48:51;;;;;;;;;;;21.70;99.90;;;;;;5122203;27;19923;-81
2022/07/26 11:51:18;;;;;;;;;;;22.00;99.10;;;;;;5139433;27;19923;-80
2022/07/26 11:53:44;;;;;;;;;;;22.30;99.20;;;;;;5138851;27;20018;-80
2022/07/26 11:56:12;;;;;;;;;;;22.40;99.60;;;;;;5139351;27;19927;-80
2022/07/26 11:58:39;;;;;;;;;;;22.00;98.70;;;;;;5121703;27;20359;-89
2022/07/26 12:01:04;;;;;;;;;;;21.70;98.70;;;;;;5139009;27;19930;-80
2022/07/26 12:03:33;;;;;;;;;;;21.60;98.30;;;;;;5138911;27;19924;-80
2022/07/26 12:06:09;;;;;;;;;;;21.70;99.00;;;;;;5121481;27;19930;-80
2022/07/26 12:08:46;;;;;;;;;;;21.90;98.00;;;;;;5121868;27;19927;-80
2022/07/26 12:11:12;;;;;;;;;;;22.00;97.70;;;;;;5121764;27;20011;-80
2022/07/26 12:13:52;;;;;;;;;;;21.80;97.40;;;;;;5138570;27;19923;-80
2022/07/26 12:16:36;;;;;;;;;;;21.70;97.90;;;;;;5138914;27;19926;-80
2022/07/26 12:19:03;;;;;;;;;;;21.50;97.80;;;;;;5120771;27;19923;-80
2022/07/26 12:21:38;;;;;;;;;;;21.30;97.80;;;;;;5138878;27;20375;-81
2022/07/26 12:24:04;;;;;;;;;;;21.80;98.10;;;;;;5121401;27;20018;-81
2022/07/26 12:26:29;;;;;;;;;;;21.90;97.20;;;;;;5138750;27;20017;-80
2022/07/26 12:28:56;;;;;;;;;;;22.00;96.90;;;;;;5138567;27;19949;-81
2022/07/26 12:31:26;;;;;;;;;;;22.20;96.50;;;;;;5121669;27;19927;-80
2022/07/26 12:33:52;;;;;;;;;;;22.30;96.10;;;;;;5120924;27;20366;-80
2022/07/26 12:36:22;;;;;;;;;;;21.90;95.60;;;;;;5121398;27;19923;-80
2022/07/26 12:38:47;;;;;;;;;;;21.70;96.20;;;;;;5138381;27;19923;-81
2022/07/26 12:41:33;;;;;;;;;;;22.10;96.30;;;;;;5121173;27;19972;-83
2022/07/26 12:43:59;;;;;;;;;;;22.50;96.00;;;;;;5123251;27;20002;-82
2022/07/26 12:46:24;;;;;;;;;;;22.80;94.30;;;;;;5111669;27;20392;-84
2022/07/26 12:48:50;;;;;;;;;;;22.80;93.90;;;;;;5108844;27;19927;-87
2022/07/26 12:51:16;;;;;;;;;;;22.10;94.20;;;;;;5133923;27;19930;-80
2022/07/26 12:53:41;;;;;;;;;;;22.00;95.20;;;;;;5127304;27;20358;-82
2022/07/26 12:56:07;;;;;;;;;;;22.60;96.30;;;;;;5122167;27;19983;-86
2022/07/26 12:58:32;;;;;;;;;;;22.20;95.50;;;;;;5143939;27;19923;-85
2022/07/26 13:00:58;;;;;;;;;;;21.60;95.90;;;;;;5151609;27;20016;-83
2022/07/26 13:03:23;;;;;;;;;;;21.40;97.20;;;;;;5146482;27;19923;-84
2022/07/26 13:05:49;;;;;;;;;;;21.00;98.60;;;;;;5138127;27;19932;-88
2022/07/26 13:08:15;;;;;;;;;;;20.90;99.10;;;;;;5131018;27;19943;-85
2022/07/26 13:10:41;;;;;;;;;;;20.90;99.20;;;;;;5137246;27;19933;-87
2022/07/26 13:13:06;;;;;;;;;;;20.60;97.70;;;;;;5121134;27;20106;-87
2022/07/26 13:15:32;;;;;;;;;;;20.50;98.60;;;;;;5137833;27;20334;-88
2022/07/26 13:17:58;;;;;;;;;;;20.40;99.30;;;;;;5111526;27;19923;-85
2022/07/26 13:20:24;;;;;;;;;;;20.20;98.90;;;;;;5140682;27;19931;-87
2022/07/26 13:22:49;;;;;;;;;;;20.20;98.60;;;;;;5124569;27;19980;-87
2022/07/26 13:25:15;;;;;;;;;;;20.20;99.60;;;;;;5137189;27;20317;-84
2022/07/26 13:27:41;;;;;;;;;;;20.30;99.50;;;;;;5107066;27;19958;-88
2022/07/26 13:30:06;;;;;;;;;;;20.80;99.90;;;;;;5147108;27;19923;-85
2022/07/26 13:32:32;;;;;;;;;;;21.00;98.90;;;;;;5158030;27;19923;-87
2022/07/26 13:34:58;;;;;;;;;;;21.70;98.30;;;;;;5141394;27;19922;-87
2022/07/26 13:37:23;;;;;;;;;;;21.90;97.40;;;;;;5120273;27;19968;-91
2022/07/26 13:39:49;;;;;;;;;;;21.80;98.00;;;;;;5135786;27;20018;-91
2022/07/26 13:42:16;;;;;;;;;;;21.80;98.40;;;;;;5141643;27;19923;-88
2022/07/26 13:44:41;;;;;;;;;;;21.40;98.40;;;;;;5138591;27;19923;-93
2022/07/26 13:47:07;;;;;;;;;;;20.90;98.80;;;;;;5137647;27;20359;-91
2022/07/26 13:49:32;;;;;;;;;;;20.70;99.90;;;;;;5121539;27;19923;-80
2022/07/26 13:51:58;;;;;;;;;;;20.40;99.90;;;;;;5117180;27;20264;-79
2022/07/26 13:54:25;;;;;;;;;;;20.10;99.90;;;;;;5102690;27;19927;-79
2022/07/26 13:56:51;;;;;;;;;;;20.10;99.90;;;;;;5116809;27;20457;-81
2022/07/26 13:59:17;;;;;;;;;;;20.00;99.90;;;;;;5118134;27;19929;-79
2022/07/26 14:01:42;;;;;;;;;;;20.00;99.90;;;;;;5142813;27;20354;-80
2022/07/26 14:04:08;;;;;;;;;;;20.10;99.90;;;;;;5137572;27;19927;-82
2022/07/26 14:06:34;;;;;;;;;;;20.40;99.90;;;;;;5143485;27;19927;-81
2022/07/26 14:09:00;;;;;;;;;;;20.50;99.90;;;;;;5137566;27;19941;-81
2022/07/26 14:11:25;;;;;;;;;;;20.90;99.90;;;;;;5135588;27;19929;-83
2022/07/26 14:13:51;;;;;;;;;;;21.40;99.90;;;;;;5113461;27;19969;-82
2022/07/26 14:16:17;;;;;;;;;;;21.60;99.90;;;;;;5142055;27;20313;-81
2022/07/26 14:18:42;;;;;;;;;;;21.30;99.90;;;;;;5137277;27;19927;-80